• Join FlightAware (Why Join?)
  • Login
  • US Flag 
03:21AM EDT


 

Airport Tracker/Info


-or-


 

Live Flight TrackerFlight Track Log ✈ N789EX ✈ 04-Apr-2014 ✈ KLBB - KBFI

Flight Track Log - Related Links

Times and Time Zones

All times are in EDT time to prevent confusion due to time zone crossing. See the N789EX flight status page for this flight to view local times or setup timezone preferences in your user account.

Time Position Orientation Groundspeed Altitude Reporting Facility
EDT Latitude Longitude Course Direction KTS MPH feet Rate Location/Type
12:31PM 33.6619 -101.7964 North 207 238 4,200  Level Fort Worth Center
12:32PM 33.6686 -101.7544 85° East 153 176 7,200 2,820 Climbing Fort Worth Center
12:33PM 33.7706 -101.8000 North  Level FlightAware Approximate
12:33PM 33.7314 -101.7508 North 222 255 9,900  Level Fort Worth Center
12:34PM 33.8902 -101.7967 North  Level FlightAware Approximate
12:34PM 33.8203 -101.7467 North 306 352 12,400  Level Fort Worth Center
12:35PM 34.0092 -101.7807 North  Level FlightAware Approximate
12:35PM 33.9219 -101.7444 North 364 419 15,600  Level Fort Worth Center
12:36PM 34.1285 -101.7688 North  Level FlightAware Approximate
12:36PM 34.0422 -101.7394 North 405 466 18,500  Level Fort Worth Center
12:37PM 34.1606 -101.7356 North 424 488 21,400 2,460 Climbing Fort Worth Center
12:38PM 34.2692 -101.7322 North 436 502 23,700 2,460 Climbing Fort Worth Center
12:39PM 34.4231 -101.7258 North 460 529 26,600 2,400 Climbing Fort Worth Center
12:40PM 34.5542 -101.7222 North 467 537 28,700 1,980 Climbing Fort Worth Center
12:41PM 34.6883 -101.7161 North 481 554 30,700 1,860 Climbing Fort Worth Center
12:42PM 34.7692 -101.7156 360° North 483 556 31,700 1,740 Climbing Albuquerque Center
12:43PM 34.9086 -101.7103 North 496 571 33,500 1,740 Climbing Albuquerque Center
12:44PM 35.0500 -101.7050 North 505 581 35,400 1,200 Climbing Albuquerque Center
12:45PM 35.1897 -101.7003 North 504 580 36,000 720 Climbing Albuquerque Center
12:46PM 35.3067 -101.7597 337° Northwest 465 535 36,900 1,320 Climbing Albuquerque Center
12:47PM 35.4178 -101.8625 323° Northwest 438 504 38,800 1,440 Climbing Albuquerque Center
12:48PM 35.5128 -101.9500 323° Northwest 429 494 39,900 540 Climbing Albuquerque Center
12:49PM 35.5919 -102.0267 322° Northwest 424 488 40,000  Climbing Albuquerque Center
12:50PM 35.7086 -102.1328 324° Northwest 432 497 40,000  Level Albuquerque Center
12:51PM 35.8061 -102.2228 323° Northwest 434 499 40,000  Level Albuquerque Center
12:52PM 35.9019 -102.3128 323° Northwest 434 499 40,000  Level Albuquerque Center
12:53PM 35.9986 -102.4033 323° Northwest 435 501 40,000  Level Albuquerque Center
12:54PM 36.0956 -102.4928 323° Northwest 435 501 40,000  Level Albuquerque Center
12:55PM 36.2125 -102.6011 323° Northwest 435 501 40,000  Level Albuquerque Center
12:56PM 36.3092 -102.6917 323° Northwest 436 502 40,000  Level Albuquerque Center
12:57PM 36.4067 -102.7847 322° Northwest 437 503 40,000  Level Albuquerque Center
12:58PM 36.5056 -102.8786 323° Northwest 445 512 40,000  Level Albuquerque Center
12:59PM 36.6044 -102.9733 322° Northwest 449 517 40,000  Level Albuquerque Center
01:00PM 36.7119 -103.0750 323° Northwest 449 517 40,000  Level Albuquerque Center
01:02PM 36.7997 -103.2036 310° West 438 504 40,000  Level Albuquerque Center
01:03PM 36.8692 -103.3192 307° West 438 504 40,000  Level Albuquerque Center
01:04PM 36.9500 -103.4533 307° West 433 498 40,000  Level Albuquerque Center
01:09PM 37.3535 -104.1364 306° West 442 509 40,000  Level FlightAware ADS-B (KEIK)
01:10PM 37.4486 -104.2997 306° West 445 512 40,000  Level FlightAware ADS-B (KEIK)
01:11PM 37.5152 -104.4145 306° West 447 514 40,000  Level FlightAware ADS-B (KEIK)
01:12PM 37.5581 -104.4888 306° West 446 513 40,000  Level FlightAware ADS-B (KEIK)
01:13PM 37.6048 -104.5699 306° West 446 513 40,000  Level FlightAware ADS-B (KEIK)
01:14PM 37.6941 -104.7271 305° West 443 510 40,000  Level FlightAware ADS-B (KEIK)
01:14PM 37.7220 -104.7766 305° West 440 506 40,000  Level FlightAware ADS-B (KEIK)
01:15PM 37.7816 -104.8825 305° West 442 509 40,000  Level FlightAware ADS-B (KEIK)
01:16PM 37.8460 -104.9972 305° West 446 513 40,000  Level FlightAware ADS-B (KEIK)
01:17PM 37.9301 -105.1476 305° West 444 511 40,000  Level FlightAware ADS-B (KEIK)
01:18PM 37.9713 -105.2216 305° West 446 513 40,000  Level FlightAware ADS-B (KMTJ)
01:18PM 38.0239 -105.3163 305° West 446 513 40,000  Level FlightAware ADS-B (KEIK)
01:19PM 38.0619 -105.3849 305° West 447 514 40,000  Level FlightAware ADS-B (KMTJ)
01:20PM 38.1114 -105.4745 305° West 448 516 40,000  Level FlightAware ADS-B (KEIK)
01:21PM 38.1231 -105.4956 305° West 448 516 40,000  Level FlightAware ADS-B (KMTJ)
01:21PM 38.2111 -105.6556 305° West 448 516 40,000  Level FlightAware ADS-B (KEIK)
01:22PM 38.2516 -105.7295 305° West 449 517 40,000  Level FlightAware ADS-B (KBDG)
01:23PM 38.3097 -105.8356 305° West 450 518 40,000  Level FlightAware ADS-B (KMTJ)
01:24PM 38.3888 -105.9810 305° West 454 522 40,000  Level FlightAware ADS-B (KMTJ)
01:24PM 38.4218 -106.0417 305° West 456 525 40,000  Level FlightAware ADS-B (KMTJ)
01:25PM 38.4616 -106.1152 305° West 458 527 40,000  Level FlightAware ADS-B (KMTJ)
01:25PM 38.4988 -106.1840 305° West 457 526 40,000  Level FlightAware ADS-B (KMTJ)
01:26PM 38.5529 -106.2842 305° West 456 525 40,000  Level FlightAware ADS-B (KEIK)
01:26PM 38.5903 -106.3539 304° West 457 526 40,000  Level FlightAware ADS-B (KMTJ)
01:27PM 38.6270 -106.4221 304° West 454 522 40,000  Level FlightAware ADS-B (KBDG)
01:28PM 38.6742 -106.5104 304° West 453 521 40,000  Level FlightAware ADS-B (KMTJ)
01:28PM 38.7131 -106.5831 304° West 452 520 40,000  Level FlightAware ADS-B (KMTJ)
01:29PM 38.7484 -106.6492 304° West 452 520 40,000  Level FlightAware ADS-B (KMTJ)
01:29PM 38.7843 -106.7169 304° West 452 520 40,000  Level FlightAware ADS-B (KMTJ)
01:30PM 38.8226 -106.7885 305° West 453 521 40,000  Level FlightAware ADS-B (KMTJ)
01:30PM 38.8620 -106.8617 305° West 452 520 40,000  Level FlightAware ADS-B (KMTJ)
01:31PM 38.8952 -106.9233 305° West 452 520 40,000  Level FlightAware ADS-B (KMTJ)
01:31PM 38.9388 -107.0044 305° West 452 520 40,000  Level FlightAware ADS-B (KMTJ)
01:32PM 38.9744 -107.0712 304° West 453 521 40,000  Level FlightAware ADS-B (KMTJ)
01:32PM 39.0108 -107.1393 304° West 455 524 40,000  Level FlightAware ADS-B (KMTJ)
01:33PM 39.0578 -107.2277 304° West 457 526 40,000  Level FlightAware ADS-B (KMTJ)
01:34PM 39.0965 -107.3007 304° West 457 526 40,000  Level FlightAware ADS-B (KMTJ)
01:34PM 39.1309 -107.3665 304° West 457 526 40,000  Level FlightAware ADS-B (KMTJ)
01:34PM 39.1284 -107.3616 304° West 457 526 40,000  Level FlightAware ADS-B (KEIK)
01:35PM 39.1764 -107.4554 303° West 456 525 40,000  Level FlightAware ADS-B (KMTJ)
01:35PM 39.2078 -107.5164 303° West 457 526 40,000  Level FlightAware ADS-B (KMTJ)
01:36PM 39.2504 -107.5997 303° West 459 528 40,000  Level FlightAware ADS-B (KMTJ)
01:36PM 39.2901 -107.6774 303° West 459 528 40,000  Level FlightAware ADS-B (KMTJ)
01:37PM 39.3208 -107.7375 303° West 458 527 40,000  Level FlightAware ADS-B (KMTJ)
01:37PM 39.3553 -107.8054 303° West 455 524 40,000  Level FlightAware ADS-B (KMTJ)
01:38PM 39.3936 -107.8815 303° West 455 524 40,000  Level FlightAware ADS-B (KMTJ)
01:38PM 39.4299 -107.9550 302° West 458 527 40,000  Level FlightAware ADS-B (KMTJ)
01:39PM 39.4662 -108.0278 303° West 459 528 40,000  Level FlightAware ADS-B (KMTJ)
01:39PM 39.5012 -108.0953 304° West 460 529 40,000  Level FlightAware ADS-B (KMTJ)
01:40PM 39.5302 -108.1511 303° West 462 532 40,000  Level FlightAware ADS-B (KMTJ)
01:40PM 39.5726 -108.2349 303° West 463 533 40,000  Level FlightAware ADS-B (KMTJ)
01:41PM 39.6189 -108.3277 303° West 462 532 40,000  Level FlightAware ADS-B (KMTJ)
01:42PM 39.6518 -108.3934 303° West 457 526 40,000  Level FlightAware ADS-B (KMTJ)
01:42PM 39.6943 -108.4777 303° West 457 526 40,000  Level FlightAware ADS-B (KMTJ)
01:43PM 39.7322 -108.5545 303° West 456 525 40,000  Level FlightAware ADS-B (KMTJ)
01:43PM 39.7664 -108.6236 303° West 457 526 40,000  Level FlightAware ADS-B (KMTJ)
01:44PM 39.8035 -108.6981 303° West 456 525 40,000  Level FlightAware ADS-B (KMTJ)
01:44PM 39.8364 -108.7649 303° West 456 525 40,000  Level FlightAware ADS-B (KMTJ)
01:45PM 39.8848 -108.8639 303° West 456 525 40,000  Level FlightAware ADS-B (KMTJ)
01:46PM 39.9294 -108.9556 303° West 457 526 40,000  Level FlightAware ADS-B (KMTJ)
01:46PM 39.9751 -109.0474 303° West 458 527 40,000  Level FlightAware ADS-B (KMTJ)
01:47PM 40.0104 -109.1188 302° West 457 526 40,000  Level FlightAware ADS-B (KMTJ)
01:48PM 40.0583 -109.2180 302° West 456 525 40,000  Level FlightAware ADS-B (KMTJ)
01:48PM 40.0951 -109.2941 302° West 456 525 40,000  Level FlightAware ADS-B (KBDG)
01:48PM 40.0955 -109.2950 302° West 456 525 40,000  Level FlightAware ADS-B (KMTJ)
01:49PM 40.1380 -109.3792 306° West 461 531 40,000  Level FlightAware ADS-B (KMTJ)
01:49PM 40.1877 -109.4662 308° West 463 533 40,000  Level FlightAware ADS-B (KMTJ)
01:50PM 40.2492 -109.5739 306° West 464 534 40,000  Level FlightAware ADS-B (KBDG)
01:51PM 40.2119 -109.5077 306° West 464 534 40,000  Level FlightAware ADS-B (KMTJ)
01:52PM 40.3515 -109.7567 306° West 463 533 40,000  Level FlightAware ADS-B (KMTJ)
01:52PM 40.4052 -109.8523 306° West 464 534 40,000  Level FlightAware ADS-B (KBDG)
01:53PM 40.4616 -109.9534 306° West 468 539 40,000  Level FlightAware ADS-B (KMTJ)
01:53PM 40.4939 -110.0111 306° West 470 541 40,000  Level FlightAware ADS-B (KPVU)
01:54PM 40.5470 -110.1059 307° West 468 539 40,000  Level FlightAware ADS-B (KMTJ)
01:54PM 40.5860 -110.1761 306° West 468 539 40,000 60 Level FlightAware ADS-B (KMTJ)
01:55PM 40.6330 -110.2618 306° West 468 539 40,100  Climbing FlightAware ADS-B (KPVU)
01:56PM 40.6667 -110.3227 306° West 471 542 40,000 -120 Descending FlightAware ADS-B (KMTJ)
01:56PM 40.7114 -110.4042 306° West 468 539 40,000  Level FlightAware ADS-B (KMTJ)
01:57PM 40.7585 -110.4901 306° West 463 533 40,000  Level FlightAware ADS-B (KMTJ)
01:57PM 40.7955 -110.5569 306° West 469 540 40,000  Level FlightAware ADS-B (KMTJ)
01:58PM 40.8479 -110.6524 306° West 472 543 40,000  Level FlightAware ADS-B (KMTJ)
01:59PM 40.8994 -110.7464 306° West 473 544 40,000  Level FlightAware ADS-B (KMTJ)
01:59PM 40.9437 -110.8288 305° West 474 545 40,000  Level FlightAware ADS-B (KMTJ)
02:00PM 40.9920 -110.9185 306° West 477 549 40,000  Level FlightAware ADS-B (KMTJ)
02:00PM 41.0349 -110.9974 306° West 475 547 40,000  Level FlightAware ADS-B (KMTJ)
02:01PM 41.0726 -111.0680 305° West 474 545 40,000  Level FlightAware ADS-B (KMTJ)
02:01PM 41.1188 -111.1537 306° West 473 544 40,000  Level FlightAware ADS-B (KBTF)
02:02PM 41.1702 -111.2467 308° West 476 548 40,000  Level FlightAware ADS-B (KBTF)
02:03PM 41.2153 -111.3215 309° West 471 542 40,000  Level FlightAware ADS-B (KBTF)
02:03PM 41.2721 -111.4136 308° West 474 545 40,000  Level FlightAware ADS-B (KBTF)
02:04PM 41.3267 -111.5023 310° West 479 551 40,000  Level FlightAware ADS-B (KBTF)
02:05PM 41.3605 -111.5556 310° West 479 551 40,000  Level FlightAware ADS-B (KPVU)
02:05PM 41.4271 -111.6638 308° West 476 548 40,000  Level FlightAware ADS-B (KBTF)
02:06PM 41.4524 -111.7065 307° West 477 549 40,000 120 Level FlightAware ADS-B (KBTF)
02:06PM 41.4815 -111.7553 308° West 478 550 40,100  Climbing FlightAware ADS-B (KBTF)
02:07PM 41.5381 -111.8472 310° West 484 557 40,000 -120 Descending FlightAware ADS-B (KPVU)
02:07PM 41.5890 -111.9286 310° West 483 556 40,000  Level FlightAware ADS-B (KBTF)
02:08PM 41.6563 -112.0397 309° West 481 554 40,000  Level FlightAware ADS-B (KPVU)
02:09PM 41.7169 -112.1407 309° West 481 554 40,000  Level FlightAware ADS-B (KBTF)
02:09PM 41.7623 -112.2137 310° West 481 554 40,000  Level FlightAware ADS-B (KPVU)
02:10PM 41.8047 -112.2837 308° West 479 551 40,000  Level FlightAware ADS-B (KPVU)
02:10PM 41.8437 -112.3553 304° West 477 549 40,000  Level FlightAware ADS-B (KPVU)
02:11PM 41.8832 -112.4356 304° West 474 545 40,000  Level FlightAware ADS-B (KPVU)
02:11PM 41.9214 -112.5126 304° West 477 549 40,000  Level FlightAware ADS-B (KPVU)
02:12PM 41.9547 -112.5800 304° West 475 547 40,000  Level FlightAware ADS-B (KPVU)
02:12PM 41.9655 -112.6016 303° West 470 541 40,000  Level FlightAware ADS-B (KBTF)
02:12PM 41.9988 -112.6687 304° West 475 547 40,000  Level FlightAware ADS-B (KPVU)
02:13PM 42.0448 -112.7647 300° West 474 545 40,000  Level FlightAware ADS-B (KPVU)
02:13PM 42.0769 -112.8351 304° West 477 549 40,000  Level FlightAware ADS-B (KPVU)
02:14PM 42.0978 -112.8754 305° West 477 549 40,000  Level FlightAware ADS-B (KPVU)
02:14PM 42.1534 -112.9835 304° West 477 549 40,000  Level FlightAware ADS-B (KPVU)
02:15PM 42.1931 -113.0643 303° West 474 545 40,000  Level FlightAware ADS-B (KBTF)
02:16PM 42.2336 -113.1467 303° West 478 550 40,000  Level FlightAware ADS-B (KPVU)
02:16PM 42.2729 -113.2271 303° West 477 549 40,000  Level FlightAware ADS-B (KPVU)
02:17PM 42.3110 -113.3058 303° West 478 550 40,000  Level FlightAware ADS-B (KBTF)
02:17PM 42.3480 -113.3821 303° West 477 549 40,000  Level FlightAware ADS-B (KPVU)
02:18PM 42.3829 -113.4539 303° West 479 551 40,000  Level FlightAware ADS-B (KPVU)
02:18PM 42.4251 -113.5413 303° West 476 548 40,000  Level FlightAware ADS-B (KPVU)
02:19PM 42.4616 -113.6165 303° West 480 552 40,000  Level FlightAware ADS-B (KPVU)
02:19PM 42.4998 -113.6968 303° West 480 552 40,000  Level FlightAware ADS-B (KPVU)
02:20PM 42.5354 -113.7710 303° West 479 551 40,000  Level FlightAware ADS-B (KPVU)
02:20PM 42.5756 -113.8541 305° West 479 551 40,000  Level FlightAware ADS-B (KPVU)
02:21PM 42.6369 -113.9626 308° West 477 549 40,000  Level FlightAware ADS-B (KBTF)
02:22PM 42.6888 -114.0524 308° West 481 554 40,000  Level FlightAware ADS-B (KPVU)
02:22PM 42.7295 -114.1239 308° West 481 554 40,000  Level FlightAware ADS-B (KPVU)
02:22PM 42.7473 -114.1549 308° West 482 555 40,000  Level FlightAware ADS-B (KPVU)
02:23PM 42.7896 -114.2288 308° West 481 554 40,000  Level FlightAware ADS-B (KPVU)
02:24PM 42.8543 -114.3416 307° West 478 550 40,000  Level FlightAware ADS-B (KBTF)
02:24PM 42.9128 -114.4439 307° West 477 549 40,000  Level FlightAware ADS-B (KBTF)
02:25PM 42.9697 -114.5438 307° West 478 550 40,000 -120 Level FlightAware ADS-B (KBTF)
02:26PM 43.0189 -114.6301 308° West 479 551 39,900  Descending FlightAware ADS-B (KBTF)
02:26PM 43.0780 -114.7338 307° West 478 550 40,000 60 Climbing FlightAware ADS-B (KBTF)
02:27PM 43.1328 -114.8312 307° West 485 558 40,000  Level FlightAware ADS-B (KBTF)
02:28PM 43.2264 -115.0044 307° West 482 555 40,000  Level Salt Lake Center
02:29PM 43.3067 -115.1497 307° West 480 552 40,000  Level Salt Lake Center
02:30PM 43.3892 -115.2944 308° West 480 552 40,000 -60 Level Salt Lake Center
02:31PM 43.4767 -115.4336 311° West 480 552 39,900  Descending Salt Lake Center
02:32PM 43.5692 -115.5672 314° West 481 554 40,000  Climbing Salt Lake Center
02:33PM 43.6594 -115.7031 313° West 482 555 40,000  Level Salt Lake Center
02:35PM 43.7686 -115.8686 312° West 484 557 40,000  Level Salt Lake Center
02:36PM 43.8583 -116.0039 313° West 478 550 40,000  Level Salt Lake Center
02:37PM 43.9481 -116.1394 313° West 477 549 40,000  Level Salt Lake Center
02:38PM 44.0381 -116.2764 312° West 476 548 40,000  Level Salt Lake Center
02:39PM 44.1275 -116.4133 312° West 476 548 40,000  Level Salt Lake Center
02:40PM 44.2169 -116.5500 312° West 474 545 40,000  Level Salt Lake Center
02:41PM 44.3064 -116.6886 312° West 475 547 40,000  Level Salt Lake Center
02:42PM 44.3944 -116.8264 312° West 474 545 40,000  Level Salt Lake Center
02:43PM 44.5011 -116.9917 312° West 474 545 40,000  Level Salt Lake Center
02:44PM 44.5886 -117.1306 312° West 475 547 40,000  Level Salt Lake Center
02:45PM 44.6806 -117.2669 313° West 475 547 40,000  Level Salt Lake Center
02:46PM 44.7650 -117.4100 310° West 476 548 40,000  Level Salt Lake Center
02:47PM 44.8528 -117.5500 312° West 476 548 40,000  Level Salt Lake Center
02:48PM 44.9417 -117.6894 312° West 476 548 40,000  Level Salt Lake Center
02:49PM 45.0458 -117.8611 311° West 478 550 40,000  Level Salt Lake Center
02:50PM 45.1308 -118.0025 310° West 476 548 40,000  Level Salt Lake Center
02:51PM 45.2058 -118.1250 311° West 475 547 40,000  Level Salt Lake Center
02:52PM 45.3117 -118.2917 312° West 474 545 40,000  Level Salt Lake Center
02:53PM 45.3972 -118.4356 310° West 475 547 40,000  Level Salt Lake Center
02:54PM 45.4825 -118.5783 310° West 477 549 40,000  Level Seattle Center
03:00PM 46.0136 -119.4730 310° West 479 551 40,000  Level FlightAware ADS-B (KSLE)
03:01PM 46.0537 -119.5420 310° West 474 545 40,000  Level FlightAware ADS-B
03:01PM 46.0655 -119.5622 310° West 474 545 40,000  Level FlightAware ADS-B (KSLE)
03:01PM 46.1126 -119.6430 310° West 474 545 40,000  Level FlightAware ADS-B
03:02PM 46.1244 -119.6638 310° West 475 547 40,000  Level FlightAware ADS-B (KSLE)
03:02PM 46.1794 -119.7589 310° West 475 547 40,000  Level FlightAware ADS-B (KSLE)
03:03PM 46.2160 -119.8224 310° West 482 555 40,000  Level FlightAware ADS-B (KSLE)
03:04PM 46.2938 -119.9578 309° West 473 544 40,000  Level FlightAware ADS-B (KSLE)
03:04PM 46.3060 -119.9791 310° West 472 543 40,000  Level FlightAware ADS-B (CYVR)
03:04PM 46.3488 -120.0543 310° West 470 541 40,000  Level FlightAware ADS-B (KSLE)
03:04PM 46.3577 -120.0700 310° West 470 541 40,000 -360 Level FlightAware ADS-B
03:05PM 46.4001 -120.1440 309° West 469 540 39,800 -360 Descending FlightAware ADS-B
03:05PM 46.3869 -120.1209 310° West 467 537 39,800 -600 Level FlightAware ADS-B (KSLE)
03:05PM 46.4408 -120.2150 309° West 458 527 39,500 -780 Descending FlightAware ADS-B
03:06PM 46.3869 -120.1209 309° West 458 527 39,300 -1,200 Descending FlightAware ADS-B (KSLE)
03:06PM 46.4826 -120.2890 309° West 457 526 38,900 -1,080 Descending FlightAware ADS-B
03:07PM 46.5575 -120.4230 309° West 456 525 38,000 -1,260 Descending FlightAware ADS-B
03:07PM 46.5776 -120.4610 307° West 445 512 37,400 -2,820 Descending FlightAware ADS-B
03:08PM 46.6135 -120.5350 305° West 446 513 35,800 -3,420 Descending FlightAware ADS-B
03:08PM 46.6495 -120.6100 305° West 449 517 34,000 -3,540 Descending FlightAware ADS-B
03:08PM 46.3060 -119.9791 310° West 472 543 33,300 -3,540 Descending FlightAware ADS-B (CYVR)
03:09PM 46.6853 -120.6850 305° West 451 519 32,200 -3,000 Descending FlightAware ADS-B
03:09PM 46.7238 -120.7670 305° West 458 527 30,800 -2,640 Descending FlightAware ADS-B
03:10PM 46.7806 -120.8870 305° West 449 517 28,800 -2,580 Descending FlightAware ADS-B
03:10PM 46.8160 -120.9620 305° West 436 502 27,500 -2,460 Descending FlightAware ADS-B
03:11PM 46.8497 -121.0330 304° West 425 489 26,300 -2,400 Descending FlightAware ADS-B
03:11PM 46.8826 -121.1040 304° West 417 480 25,100 -2,400 Descending FlightAware ADS-B
03:12PM 46.9152 -121.1730 304° West 412 474 23,900 -2,400 Descending FlightAware ADS-B
03:12PM 46.9474 -121.2420 304° West 406 467 22,700 -2,400 Descending FlightAware ADS-B
03:13PM 46.9790 -121.3100 304° West 400 460 21,500 -2,400 Descending FlightAware ADS-B
03:13PM 47.0099 -121.3770 304° West 390 449 20,300 -1,740 Descending FlightAware ADS-B
03:14PM 47.0395 -121.4410 304° West 365 420 19,800 -840 Descending FlightAware ADS-B
03:14PM 47.0506 -121.4646 304° West 355 409 19,700 -420 Descending FlightAware ADS-B (CYVR)
03:14PM 47.0671 -121.5000 304° West 346 398 19,600 -1,080 Descending FlightAware ADS-B
03:15PM 47.0939 -121.5580 304° West 341 392 18,900 -1,500 Descending FlightAware ADS-B
03:15PM 47.0960 -121.5629 304° West 340 391 18,800 -1,800 Descending FlightAware ADS-B (CYVR)
03:15PM 47.1202 -121.6150 304° West 334 384 18,000 -1,800 Descending FlightAware ADS-B
03:16PM 47.1462 -121.6720 304° West 328 377 17,100 -1,740 Descending FlightAware ADS-B
03:16PM 47.1716 -121.7270 304° West 323 372 16,300 -1,740 Descending FlightAware ADS-B
03:17PM 47.1967 -121.7820 304° West 324 373 15,400 -1,740 Descending FlightAware ADS-B
03:17PM 47.2040 -121.7985 304° West 323 372 15,200 -1,200 Descending FlightAware ADS-B (CYVR)
03:17PM 47.2216 -121.8360 304° West 318 366 14,800 -1,200 Descending FlightAware ADS-B
03:18PM 47.2467 -121.8920 304° West 314 361 14,200 -1,020 Descending FlightAware ADS-B
03:18PM 47.2707 -121.9450 304° West 311 358 13,800 -900 Descending FlightAware ADS-B
03:19PM 47.2949 -121.9980 304° West 309 356 13,300 -960 Descending FlightAware ADS-B
03:19PM 47.3110 -122.0337 304° West 308 354 13,000 -900 Descending FlightAware ADS-B (CYVR)
03:19PM 47.3172 -122.0470 304° West 307 353 12,900 -960 Descending FlightAware ADS-B
03:20PM 47.3407 -122.1000 304° West 299 344 12,400 -1,020 Descending FlightAware ADS-B
03:20PM 47.3601 -122.1420 303° West 287 330 12,000 -900 Descending FlightAware ADS-B
03:20PM 47.3658 -122.1560 300° West 283 326 11,900 -1,500 Descending FlightAware ADS-B
03:21PM 47.3809 -122.1970 298° West 283 326 11,200 -1,140 Descending FlightAware ADS-B
03:21PM 47.4002 -122.2490 299° West 281 323 10,900 -720 Descending FlightAware ADS-B
03:22PM 47.4072 -122.2679 299° West 275 316 10,700 -840 Descending FlightAware ADS-B (CYVR)
03:22PM 47.4186 -122.2980 299° West 268 308 10,500 -1,140 Descending FlightAware ADS-B
03:22PM 47.4307 -122.3310 299° West 265 305 10,000 -1,380 Descending FlightAware ADS-B
03:22PM 47.4310 -122.3321 299° West 265 305 10,000 -1,620 Level FlightAware ADS-B (CYVR)
03:22PM 47.4396 -122.3560 299° West 265 305 9,600 -1,800 Descending FlightAware ADS-B
03:23PM 47.4408 -122.3589 299° West 266 306 9,500 -1,140 Descending FlightAware ADS-B (CYVR)
03:23PM 47.4489 -122.3800 299° West 265 305 9,300 -1,200 Descending FlightAware ADS-B
03:23PM 47.4535 -122.3930 300° West 263 303 9,100 -1,500 Descending FlightAware ADS-B
03:23PM 47.4564 -122.3990 304° West 263 303 9,000 -780 Descending FlightAware ADS-B
03:23PM 47.4591 -122.4040 310° West 262 302 9,000  Level FlightAware ADS-B
03:23PM 47.4626 -122.4090 317° Northwest 266 306 9,000  Level FlightAware ADS-B
03:23PM 47.4665 -122.4140 322° Northwest 269 310 9,000  Level FlightAware ADS-B
03:23PM 47.4708 -122.4180 325° Northwest 269 310 9,000  Level FlightAware ADS-B
03:23PM 47.4817 -122.4280 329° Northwest 268 308 9,000  Level FlightAware ADS-B
03:24PM 47.4977 -122.4420 330° Northwest 268 308 9,000 -300 Level FlightAware ADS-B
03:24PM 47.5035 -122.4471 329° Northwest 267 307 8,900 -780 Descending FlightAware ADS-B (CYVR)
03:24PM 47.5147 -122.4570 329° Northwest 266 306 8,800 -1,500 Descending FlightAware ADS-B
03:24PM 47.5207 -122.4621 329° Northwest 267 307 8,500 -1,620 Descending FlightAware ADS-B (CYVR)
03:24PM 47.5313 -122.4710 329° Northwest 267 307 8,400 -1,020 Descending FlightAware ADS-B
03:24PM 47.5476 -122.4860 330° Northwest 264 304 8,100 -1,380 Descending FlightAware ADS-B
03:25PM 47.5635 -122.4990 330° Northwest 262 302 7,700 -1,620 Descending FlightAware ADS-B
03:25PM 47.5794 -122.5130 330° Northwest 261 300 7,300 -2,040 Descending FlightAware ADS-B
03:25PM 47.5949 -122.5270 330° Northwest 255 293 6,700 -2,400 Descending FlightAware ADS-B
03:25PM 47.6100 -122.5400 330° Northwest 249 287 6,100 -2,160 Descending FlightAware ADS-B
03:26PM 47.6342 -122.5540 334° Northwest 242 278 5,300 -2,040 Descending FlightAware ADS-B
03:26PM 47.6377 -122.5550 354° North 227 261 5,200 -1,920 Descending FlightAware ADS-B
03:26PM 47.6589 -122.5560 354° North 227 261 4,500 -2,040 Descending FlightAware ADS-B
03:27PM 47.6925 -122.5500 28° Northeast 193 222 3,200 -2,040 Descending FlightAware ADS-B
03:27PM 47.6987 -122.5220 101° East 178 205 2,400 -1,800 Descending FlightAware ADS-B
03:27PM 47.6976 -122.5170 108° East 180 207 2,300 -900 Descending FlightAware ADS-B
03:28PM 47.6949 -122.5060 112° Southeast 178 205 2,200 -480 Descending FlightAware ADS-B
03:28PM 47.6894 -122.4870 113° Southeast 174 200 2,100  Descending FlightAware ADS-B
03:28PM 47.6817 -122.4600 113° Southeast 176 203 2,200 60 Climbing FlightAware ADS-B
03:29PM 47.6610 -122.4120 147° Southeast 167 192 2,200  Level FlightAware ADS-B
03:29PM 47.6485 -122.4030 152° Southeast 164 189 2,200  Level FlightAware ADS-B
03:30PM 47.6364 -122.3930 150° Southeast 150 173 2,200 -240 Level FlightAware ADS-B
03:30PM 47.6304 -122.3880 150° Southeast 146 168 2,100 -720 Descending FlightAware ADS-B
03:30PM 47.6216 -122.3800 150° Southeast 138 159 1,900 -780 Descending FlightAware ADS-B
03:30PM 47.6090 -122.3690 150° Southeast 135 155 1,600 -780 Descending FlightAware ADS-B
03:31PM 47.5878 -122.3520 150° Southeast 135 155 1,100 -780 Descending FlightAware ADS-B
03:32PM 47.5708 -122.3383 150° Southeast 135 155 700 -720 Descending Seattle Center